createdAt,value
2018-12-20T00:02:48.009Z,18.90
2018-12-20T00:05:51.447Z,20.37
2018-12-20T00:08:54.774Z,20.30
2018-12-20T00:11:58.031Z,19.37
2018-12-20T00:15:01.844Z,19.77
2018-12-20T00:18:05.138Z,20.10
2018-12-20T00:21:08.398Z,19.73
2018-12-20T00:24:11.648Z,20.40
2018-12-20T00:27:15.005Z,19.97
2018-12-20T00:30:19.290Z,21.20
2018-12-20T00:33:22.716Z,20.13
2018-12-20T00:36:26.063Z,19.77
2018-12-20T00:39:29.720Z,19.50
2018-12-20T00:42:33.067Z,21.70
2018-12-20T00:45:36.335Z,20.67
2018-12-20T00:48:46.411Z,21.70
2018-12-20T00:51:49.877Z,21.57
2018-12-20T00:54:53.388Z,22.97
2018-12-20T00:57:56.654Z,23.07
2018-12-20T01:00:59.779Z,22.73
2018-12-20T01:04:03.171Z,22.87
2018-12-20T01:07:06.518Z,24.47
2018-12-20T01:10:10.450Z,22.93
2018-12-20T01:13:13.908Z,22.93
2018-12-20T01:16:17.353Z,25.33
2018-12-20T01:19:20.672Z,25.27
2018-12-20T01:22:23.922Z,23.83
2018-12-20T01:25:27.105Z,24.53
2018-12-20T01:28:30.554Z,25.47
2018-12-20T01:31:34.527Z,24.77
2018-12-20T01:34:37.753Z,23.83
2018-12-20T01:37:41.354Z,26.30
2018-12-20T01:40:45.229Z,24.07
2018-12-20T01:43:48.634Z,25.73
2018-12-20T01:46:51.890Z,24.53
2018-12-20T01:49:55.334Z,24.53
2018-12-20T01:52:58.903Z,24.13
2018-12-20T01:56:02.328Z,25.70
2018-12-20T01:59:06.929Z,24.07
2018-12-20T02:02:10.857Z,25.27
2018-12-20T02:05:14.248Z,25.57
2018-12-20T02:08:17.575Z,24.20
2018-12-20T02:11:20.936Z,22.90
2018-12-20T02:14:24.157Z,25.90
2018-12-20T02:17:27.358Z,26.13
2018-12-20T02:20:30.558Z,24.30
2018-12-20T02:23:33.776Z,25.93
2018-12-20T02:26:37.345Z,25.70
2018-12-20T02:29:40.646Z,26.33
2018-12-20T02:32:43.849Z,25.07
2018-12-20T02:35:47.214Z,24.73
2018-12-20T02:38:50.655Z,24.27
2018-12-20T02:41:54.094Z,24.97
2018-12-20T02:44:57.352Z,24.43
2018-12-20T02:48:00.562Z,24.80
2018-12-20T02:51:03.745Z,25.13
2018-12-20T02:54:06.997Z,25.37
2018-12-20T02:57:10.841Z,24.87
2018-12-20T03:00:14.051Z,25.77
2018-12-20T03:03:17.366Z,25.17
2018-12-20T03:06:20.728Z,24.20
2018-12-20T03:09:24.247Z,23.97
2018-12-20T03:12:27.531Z,25.83
2018-12-20T03:15:30.891Z,25.67
2018-12-20T03:18:34.195Z,25.87
2018-12-20T03:21:37.522Z,26.00
2018-12-20T03:24:40.748Z,26.07
2018-12-20T03:27:43.913Z,25.83
2018-12-20T03:30:47.260Z,25.90
2018-12-20T03:33:50.815Z,25.93
2018-12-20T03:36:54.201Z,26.83
2018-12-20T03:39:57.444Z,24.73
2018-12-20T03:43:00.839Z,25.80
2018-12-20T03:46:04.191Z,26.77
2018-12-20T03:49:07.660Z,26.70
2018-12-20T03:52:11.535Z,27.57
2018-12-20T03:55:14.733Z,27.63
2018-12-20T03:58:18.018Z,27.37
2018-12-20T04:01:21.212Z,27.03
2018-12-20T04:04:24.640Z,27.43
2018-12-20T04:07:27.997Z,26.03
2018-12-20T04:10:31.202Z,26.60
2018-12-20T04:13:34.400Z,26.73
2018-12-20T04:16:37.693Z,30.20
2018-12-20T04:19:40.955Z,29.30
2018-12-20T04:22:44.620Z,29.90
2018-12-20T04:25:48.012Z,29.63
2018-12-20T04:28:51.250Z,31.07
2018-12-20T04:31:54.584Z,31.47
2018-12-20T04:34:58.035Z,30.43
2018-12-20T04:38:01.296Z,31.93
2018-12-20T04:41:04.697Z,30.73
2018-12-20T04:44:08.088Z,31.13
2018-12-20T04:47:11.623Z,29.63
2018-12-20T04:50:15.133Z,28.50
2018-12-20T04:53:18.393Z,26.17
2018-12-20T04:56:21.812Z,26.00
2018-12-20T04:59:25.353Z,27.23
2018-12-20T05:02:28.861Z,28.77
2018-12-20T05:05:32.105Z,28.10
2018-12-20T05:08:35.405Z,28.70
2018-12-20T05:11:38.616Z,28.93
2018-12-20T05:14:42.251Z,28.97
2018-12-20T05:17:46.003Z,29.37
2018-12-20T05:20:49.442Z,29.83
2018-12-20T05:23:52.755Z,32.10
2018-12-20T05:26:56.346Z,29.90
2018-12-20T05:29:59.582Z,32.40
2018-12-20T05:33:02.881Z,34.37
2018-12-20T05:36:06.219Z,32.57
2018-12-20T05:39:09.857Z,40.87
2018-12-20T05:42:13.096Z,35.53
2018-12-20T05:45:16.357Z,33.57
2018-12-20T05:48:19.608Z,32.03
2018-12-20T05:51:23.021Z,33.07
2018-12-20T05:54:26.253Z,32.43
2018-12-20T05:57:29.884Z,31.50
2018-12-20T06:00:33.091Z,31.03
2018-12-20T06:03:36.785Z,33.60
2018-12-20T06:06:40.125Z,32.67
2018-12-20T06:09:43.650Z,33.40
2018-12-20T06:12:47.089Z,32.50
2018-12-20T06:15:50.421Z,33.33
2018-12-20T06:18:53.594Z,33.43
2018-12-20T06:21:57.113Z,32.40
2018-12-20T06:25:00.365Z,32.00
2018-12-20T06:28:03.613Z,33.17
2018-12-20T06:31:06.774Z,34.23
2018-12-20T06:34:10.059Z,32.73
2018-12-20T06:37:13.370Z,34.43
2018-12-20T06:40:16.573Z,32.73
2018-12-20T06:43:19.742Z,32.73
2018-12-20T06:46:23.073Z,32.67
2018-12-20T06:49:26.253Z,34.63
2018-12-20T06:52:29.478Z,34.30
2018-12-20T06:55:32.646Z,34.07
2018-12-20T06:58:35.985Z,33.87
2018-12-20T07:01:39.141Z,32.47
2018-12-20T07:04:42.376Z,32.13
2018-12-20T07:07:45.630Z,33.30
2018-12-20T07:10:48.972Z,31.63
2018-12-20T07:13:52.122Z,33.07
2018-12-20T07:16:55.426Z,34.30
2018-12-20T07:19:58.614Z,33.73
2018-12-20T07:23:01.877Z,32.50
2018-12-20T07:26:05.010Z,31.87
2018-12-20T07:29:08.237Z,32.23
2018-12-20T07:32:11.394Z,32.73
2018-12-20T07:35:14.623Z,33.20
2018-12-20T07:38:18.422Z,31.30
2018-12-20T07:41:21.594Z,33.87
2018-12-20T07:44:24.793Z,33.67
2018-12-20T07:47:27.985Z,32.67
2018-12-20T07:50:31.207Z,32.90
2018-12-20T07:53:34.373Z,35.87
2018-12-20T07:56:37.602Z,33.17
2018-12-20T07:59:40.766Z,33.10
2018-12-20T08:02:44.054Z,34.63
2018-12-20T08:05:47.263Z,34.60
2018-12-20T08:08:50.486Z,35.60
2018-12-20T08:11:53.649Z,33.60
2018-12-20T08:14:56.884Z,33.77
2018-12-20T08:18:01.064Z,34.03
2018-12-20T08:21:04.286Z,33.43
2018-12-20T08:24:07.450Z,34.73
2018-12-20T08:27:10.934Z,32.33
2018-12-20T08:30:14.026Z,31.53
2018-12-20T08:33:17.390Z,32.87
2018-12-20T08:36:20.543Z,31.63
2018-12-20T08:39:23.773Z,30.90
2018-12-20T08:42:26.934Z,32.20
2018-12-20T08:45:30.161Z,31.83
2018-12-20T08:48:33.321Z,33.60
2018-12-20T08:51:37.360Z,31.90
2018-12-20T08:54:40.629Z,30.70
2018-12-20T08:57:43.826Z,31.17
2018-12-20T09:00:47.022Z,30.10
2018-12-20T09:03:50.218Z,29.83
2018-12-20T09:06:53.413Z,31.07
2018-12-20T09:09:56.606Z,28.90
2018-12-20T09:12:59.921Z,30.03
2018-12-20T09:16:03.102Z,30.67
2018-12-20T09:19:06.330Z,28.60
2018-12-20T09:22:09.493Z,30.30
2018-12-20T09:25:12.685Z,30.03
2018-12-20T09:28:15.881Z,29.70
2018-12-20T09:31:19.073Z,29.70
2018-12-20T09:34:22.275Z,29.50
2018-12-20T09:37:25.465Z,31.20
2018-12-20T09:40:28.641Z,29.70
2018-12-20T09:43:32.146Z,28.23
2018-12-20T09:46:35.338Z,30.53
2018-12-20T09:49:38.557Z,29.83
2018-12-20T09:52:41.898Z,30.77
2018-12-20T09:55:45.046Z,30.23
2018-12-20T09:58:48.246Z,31.90
2018-12-20T10:01:51.322Z,30.00
2018-12-20T10:04:54.529Z,28.47
2018-12-20T10:07:57.822Z,28.67
2018-12-20T10:11:01.021Z,28.43
2018-12-20T10:14:04.210Z,30.30
2018-12-20T10:17:07.407Z,29.03
2018-12-20T10:20:13.834Z,29.93
2018-12-20T10:23:16.981Z,29.13
2018-12-20T10:26:20.157Z,28.73
2018-12-20T10:29:23.386Z,28.53
2018-12-20T10:32:26.553Z,29.07
2018-12-20T10:35:29.752Z,28.47
2018-12-20T10:38:32.948Z,29.03
2018-12-20T10:41:36.242Z,29.20
2018-12-20T10:44:40.545Z,29.63
2018-12-20T10:47:44.377Z,28.03
2018-12-20T10:50:47.679Z,28.23
2018-12-20T10:53:52.512Z,27.47
2018-12-20T10:56:55.705Z,27.43
2018-12-20T10:59:58.907Z,28.20
2018-12-20T11:03:07.686Z,28.33
2018-12-20T11:06:16.569Z,27.73
2018-12-20T11:09:26.166Z,28.63
2018-12-20T11:12:34.850Z,27.03
2018-12-20T11:15:38.026Z,27.00
2018-12-20T11:18:42.231Z,26.43
2018-12-20T11:21:45.768Z,26.33
2018-12-20T11:24:49.036Z,28.33
2018-12-20T11:27:52.226Z,26.80
2018-12-20T11:30:55.425Z,28.00
2018-12-20T11:33:58.700Z,26.00
2018-12-20T11:37:02.369Z,26.43
2018-12-20T11:40:07.693Z,26.47
2018-12-20T11:43:10.869Z,28.27
2018-12-20T11:46:14.074Z,25.93
2018-12-20T11:49:17.358Z,26.27
2018-12-20T11:52:20.593Z,26.20
2018-12-20T11:55:24.382Z,27.17
2018-12-20T11:58:27.693Z,27.40
2018-12-20T12:01:30.868Z,27.60
2018-12-20T12:04:34.082Z,25.90
2018-12-20T12:07:37.347Z,27.27
2018-12-20T12:10:40.574Z,25.57
2018-12-20T12:13:43.745Z,28.03
2018-12-20T12:16:47.190Z,28.50
2018-12-20T12:19:50.329Z,26.77
2018-12-20T12:22:53.681Z,28.37
2018-12-20T12:25:57.388Z,27.83
2018-12-20T12:29:00.667Z,28.17
2018-12-20T12:32:03.915Z,29.33
2018-12-20T12:35:07.276Z,28.43
2018-12-20T12:38:10.429Z,27.77
2018-12-20T12:41:13.653Z,27.80
2018-12-20T12:44:16.918Z,28.73
2018-12-20T12:47:24.582Z,27.80
2018-12-20T12:50:27.723Z,27.67
2018-12-20T12:53:30.878Z,27.40
2018-12-20T12:56:33.849Z,27.67
2018-12-20T12:59:37.012Z,28.73
2018-12-20T13:02:40.139Z,29.30
2018-12-20T13:05:43.371Z,29.23
2018-12-20T13:08:46.359Z,27.57
2018-12-20T13:11:49.668Z,28.43
2018-12-20T13:14:52.638Z,27.13
2018-12-20T13:17:55.630Z,27.63
2018-12-20T13:20:58.598Z,29.53
2018-12-20T13:24:02.746Z,28.47
2018-12-20T13:27:07.094Z,29.77
2018-12-20T13:30:11.447Z,31.17
2018-12-20T13:33:14.402Z,28.03
2018-12-20T13:36:17.733Z,29.77
2018-12-20T13:39:21.242Z,28.03
2018-12-20T13:42:24.343Z,29.83
2018-12-20T13:45:27.289Z,28.27
2018-12-20T13:48:30.305Z,29.50
2018-12-20T13:51:33.362Z,28.63
2018-12-20T13:54:36.592Z,28.93
2018-12-20T13:57:39.752Z,27.33
2018-12-20T14:00:42.995Z,27.63
2018-12-20T14:03:47.167Z,26.37
2018-12-20T14:06:50.511Z,27.63
2018-12-20T14:09:53.476Z,27.00
2018-12-20T14:12:56.482Z,27.43
2018-12-20T14:15:59.640Z,28.33
2018-12-20T14:19:02.945Z,27.10
2018-12-20T14:22:06.139Z,27.27
2018-12-20T14:25:09.112Z,28.37
2018-12-20T14:28:12.062Z,27.27
2018-12-20T14:31:15.054Z,28.03
2018-12-20T14:34:18.210Z,29.43
2018-12-20T14:37:21.742Z,29.03
2018-12-20T14:40:24.986Z,29.70
2018-12-20T14:43:27.939Z,29.30
2018-12-20T14:46:30.914Z,28.13
2018-12-20T14:49:34.013Z,28.93
2018-12-20T14:52:37.200Z,28.60
2018-12-20T14:55:40.161Z,28.43
2018-12-20T14:58:43.162Z,27.63
2018-12-20T15:01:46.114Z,27.40
2018-12-20T15:04:49.194Z,28.97
2018-12-20T15:07:52.157Z,29.07
2018-12-20T15:10:55.161Z,32.00
2018-12-20T15:13:58.206Z,32.77
2018-12-20T15:17:01.426Z,33.73
2018-12-20T15:20:05.909Z,27.53
2018-12-20T15:23:08.960Z,30.27
2018-12-20T15:26:11.922Z,29.23
2018-12-20T15:29:14.934Z,29.60
2018-12-20T15:32:17.893Z,29.40
2018-12-20T15:35:20.855Z,29.13
2018-12-20T15:38:23.886Z,30.50
2018-12-20T15:41:26.838Z,29.67
2018-12-20T15:44:29.871Z,28.37
2018-12-20T15:47:32.842Z,29.63
2018-12-20T15:50:35.894Z,27.93
2018-12-20T15:53:38.865Z,33.17
2018-12-20T15:56:41.975Z,33.33
2018-12-20T15:59:44.983Z,31.50
2018-12-20T16:02:48.714Z,29.03
2018-12-20T16:05:51.776Z,30.83
2018-12-20T16:08:56.102Z,28.50
2018-12-20T16:11:59.408Z,28.83
2018-12-20T16:15:02.812Z,27.53
2018-12-20T16:18:05.993Z,29.37
2018-12-20T16:21:09.191Z,28.93
2018-12-20T16:24:12.794Z,28.67
2018-12-20T16:27:16.608Z,28.23
2018-12-20T16:30:19.897Z,28.83
2018-12-20T16:33:23.094Z,28.80
2018-12-20T16:36:26.402Z,29.93
2018-12-20T16:39:29.585Z,29.70
2018-12-20T16:42:32.762Z,30.23
2018-12-20T16:45:35.969Z,27.97
2018-12-20T16:48:40.298Z,27.43
2018-12-20T16:51:44.520Z,27.73
2018-12-20T16:54:48.421Z,25.90
2018-12-20T16:57:51.721Z,27.30
2018-12-20T17:00:55.006Z,26.60
2018-12-20T17:03:58.219Z,25.23
2018-12-20T17:07:02.439Z,25.80
2018-12-20T17:10:06.349Z,26.67
2018-12-20T17:13:09.553Z,26.67
2018-12-20T17:16:12.856Z,28.20
2018-12-20T17:19:22.192Z,27.13
2018-12-20T17:22:21.444Z,28.03
2018-12-20T17:25:41.574Z,26.70
2018-12-20T17:28:51.454Z,26.30
2018-12-20T17:31:54.605Z,28.43
2018-12-20T17:34:57.913Z,26.80
2018-12-20T17:38:02.262Z,28.20
2018-12-20T17:41:05.633Z,28.67
2018-12-20T17:44:10.881Z,29.73
2018-12-20T17:47:14.084Z,30.43
2018-12-20T17:50:18.302Z,30.70
2018-12-20T17:53:21.486Z,31.27
2018-12-20T17:56:24.690Z,30.17
2018-12-20T17:59:27.883Z,29.40
2018-12-20T18:02:31.082Z,26.53
2018-12-20T18:05:34.272Z,24.40
2018-12-20T18:08:37.465Z,25.23
2018-12-20T18:11:40.660Z,25.63
2018-12-20T18:14:43.859Z,25.80
2018-12-20T18:17:47.061Z,25.00
2018-12-20T18:20:50.242Z,26.87
2018-12-20T18:23:53.450Z,26.10
2018-12-20T18:26:56.630Z,25.03
2018-12-20T18:29:59.833Z,29.60
2018-12-20T18:33:03.025Z,42.23
2018-12-20T18:36:07.250Z,32.33
2018-12-20T18:39:11.074Z,34.27
2018-12-20T18:42:14.254Z,29.77
2018-12-20T18:45:18.479Z,30.33
2018-12-20T18:48:21.662Z,27.57
2018-12-20T18:51:24.958Z,27.37
2018-12-20T18:54:28.171Z,26.80
2018-12-20T18:57:31.350Z,27.17
2018-12-20T19:00:36.098Z,27.47
2018-12-20T19:03:40.390Z,26.43
2018-12-20T19:06:44.687Z,27.20
2018-12-20T19:09:47.929Z,26.83
2018-12-20T19:12:52.169Z,28.73
2018-12-20T19:15:55.336Z,27.13
2018-12-20T19:18:58.774Z,29.33
2018-12-20T19:22:03.806Z,27.73
2018-12-20T19:25:07.731Z,30.13
2018-12-20T19:28:11.910Z,31.70
2018-12-20T19:31:15.486Z,28.43
2018-12-20T19:34:20.938Z,33.83
2018-12-20T19:37:26.676Z,30.27
2018-12-20T19:40:31.487Z,30.40
2018-12-20T19:43:35.839Z,33.97
2018-12-20T19:46:40.086Z,32.10
2018-12-20T19:49:43.316Z,32.47
2018-12-20T19:52:48.527Z,30.03
2018-12-20T19:55:51.866Z,27.00
2018-12-20T19:58:56.151Z,26.67
2018-12-20T20:02:04.626Z,27.97
2018-12-20T20:05:05.844Z,29.00
2018-12-20T20:08:11.207Z,26.13
2018-12-20T20:11:14.461Z,26.83
2018-12-20T20:14:18.706Z,26.27
2018-12-20T20:17:22.022Z,26.70
2018-12-20T20:20:27.251Z,28.30
2018-12-20T20:23:30.406Z,27.00
2018-12-20T20:26:34.658Z,26.80
2018-12-20T20:29:38.026Z,26.20
2018-12-20T20:32:41.622Z,26.53
2018-12-20T20:35:45.956Z,27.03
2018-12-20T20:38:50.305Z,26.50
2018-12-20T20:41:53.479Z,25.33
2018-12-20T20:44:56.805Z,27.83
2018-12-20T20:48:00.354Z,27.20
2018-12-20T20:51:03.674Z,26.50
2018-12-20T20:54:08.198Z,26.37
2018-12-20T20:57:13.794Z,26.77
2018-12-20T21:00:18.110Z,25.07
2018-12-20T21:03:21.295Z,26.70
2018-12-20T21:06:25.482Z,26.73
2018-12-20T21:09:30.607Z,25.57
2018-12-20T21:12:33.930Z,25.43
2018-12-20T21:15:37.146Z,25.97
2018-12-20T21:18:40.319Z,25.77
2018-12-20T21:21:43.701Z,26.33
2018-12-20T21:24:46.902Z,27.20
2018-12-20T21:27:50.129Z,25.47
2018-12-20T21:30:53.506Z,26.13
2018-12-20T21:33:56.923Z,27.10
2018-12-20T21:37:00.078Z,28.40
2018-12-20T21:40:05.323Z,28.40
2018-12-20T21:43:08.641Z,28.97
2018-12-20T21:46:14.239Z,30.27
2018-12-20T21:49:17.483Z,29.70
2018-12-20T21:52:21.443Z,28.33
2018-12-20T21:55:24.673Z,27.70
2018-12-20T21:58:32.414Z,28.23
2018-12-20T22:01:35.683Z,28.80
2018-12-20T22:04:38.929Z,27.83
2018-12-20T22:07:41.998Z,28.07
2018-12-20T22:10:45.179Z,26.47
2018-12-20T22:13:48.465Z,27.17
2018-12-20T22:16:51.698Z,26.07
2018-12-20T22:19:58.529Z,26.13
2018-12-20T22:23:00.151Z,26.40
2018-12-20T22:26:03.906Z,27.47
2018-12-20T22:29:07.419Z,27.17
2018-12-20T22:32:10.709Z,27.00
2018-12-20T22:35:13.924Z,27.90
2018-12-20T22:38:17.094Z,25.57
2018-12-20T22:41:20.313Z,26.47
2018-12-20T22:44:23.485Z,26.20
2018-12-20T22:47:26.915Z,27.23
2018-12-20T22:50:29.873Z,26.63
2018-12-20T22:53:32.898Z,24.57
2018-12-20T22:56:35.869Z,24.93
2018-12-20T22:59:39.485Z,24.20
2018-12-20T23:02:42.644Z,25.13
2018-12-20T23:05:45.870Z,23.97
2018-12-20T23:08:49.306Z,23.80
2018-12-20T23:11:52.990Z,23.93
2018-12-20T23:14:56.150Z,23.77
2018-12-20T23:17:59.886Z,24.53
2018-12-20T23:21:05.169Z,23.90
2018-12-20T23:24:08.535Z,24.60
2018-12-20T23:27:11.890Z,27.90
2018-12-20T23:30:15.150Z,26.63
2018-12-20T23:33:18.282Z,26.83
2018-12-20T23:36:21.494Z,27.10
2018-12-20T23:39:24.669Z,27.43
2018-12-20T23:42:27.868Z,26.77
2018-12-20T23:45:31.155Z,26.30
2018-12-20T23:48:34.513Z,26.30
2018-12-20T23:51:45.122Z,24.97
2018-12-20T23:54:43.005Z,25.40
2018-12-20T23:57:46.481Z,23.20
